createdAt,value
2017-10-11T00:00:38.082Z,16.00
2017-10-11T00:03:05.570Z,14.03
2017-10-11T00:05:33.234Z,15.67
2017-10-11T00:08:00.723Z,14.23
2017-10-11T00:10:29.203Z,16.30
2017-10-11T00:12:56.697Z,14.70
2017-10-11T00:15:24.180Z,18.40
2017-10-11T00:17:51.677Z,20.67
2017-10-11T00:20:19.159Z,14.73
2017-10-11T00:22:46.675Z,16.30
2017-10-11T00:25:14.162Z,17.03
2017-10-11T00:27:41.689Z,15.73
2017-10-11T00:30:09.190Z,17.07
2017-10-11T00:32:36.686Z,14.80
2017-10-11T00:35:04.480Z,19.67
2017-10-11T00:37:31.955Z,13.80
2017-10-11T00:39:59.439Z,17.33
2017-10-11T00:42:26.917Z,18.83
2017-10-11T00:44:54.387Z,18.40
2017-10-11T00:47:21.882Z,16.73
2017-10-11T00:49:49.352Z,17.67
2017-10-11T00:52:16.871Z,16.77
2017-10-11T00:54:44.407Z,15.67
2017-10-11T00:57:12.150Z,18.40
2017-10-11T00:59:39.696Z,13.63
2017-10-11T01:02:07.166Z,15.33
2017-10-11T01:04:34.644Z,15.67
2017-10-11T01:07:02.115Z,16.10
2017-10-11T01:09:29.918Z,17.33
2017-10-11T01:11:57.391Z,16.03
2017-10-11T01:14:24.919Z,12.83
2017-10-11T01:16:52.396Z,15.37
2017-10-11T01:19:19.882Z,13.00
2017-10-11T01:21:47.362Z,14.80
2017-10-11T01:24:14.843Z,14.27
2017-10-11T01:26:42.319Z,17.73
2017-10-11T01:29:09.790Z,18.00
2017-10-11T01:31:37.287Z,16.10
2017-10-11T01:34:04.767Z,14.90
2017-10-11T01:36:32.327Z,13.70
2017-10-11T01:38:59.817Z,29.47
2017-10-11T01:41:27.352Z,14.50
2017-10-11T01:43:54.842Z,26.20
2017-10-11T01:46:22.318Z,20.77
2017-10-11T01:48:49.807Z,13.83
2017-10-11T01:51:17.275Z,19.87
2017-10-11T01:53:44.758Z,16.43
2017-10-11T01:56:12.254Z,15.13
2017-10-11T01:58:39.744Z,15.70
2017-10-11T02:01:07.231Z,18.00
2017-10-11T02:03:34.705Z,11.70
2017-10-11T02:06:02.181Z,15.37
2017-10-11T02:08:29.787Z,14.50
2017-10-11T02:10:57.340Z,11.67
2017-10-11T02:13:24.821Z,14.23
2017-10-11T02:15:52.295Z,16.03
2017-10-11T02:18:19.763Z,13.07
2017-10-11T02:20:47.285Z,11.37
2017-10-11T02:23:14.764Z,13.00
2017-10-11T02:25:42.256Z,15.53
2017-10-11T02:28:09.724Z,11.40
2017-10-11T02:30:37.190Z,9.80
2017-10-11T02:33:04.667Z,10.93
2017-10-11T02:35:32.136Z,10.60
2017-10-11T02:37:59.671Z,8.87
2017-10-11T02:40:27.149Z,14.57
2017-10-11T02:42:54.617Z,10.33
2017-10-11T02:45:22.108Z,10.53
2017-10-11T02:47:49.608Z,10.47
2017-10-11T02:50:17.116Z,11.90
2017-10-11T02:52:44.579Z,15.70
2017-10-11T02:55:12.035Z,9.93
2017-10-11T02:57:39.511Z,9.90
2017-10-11T03:00:07.002Z,17.43
2017-10-11T03:02:34.572Z,10.33
2017-10-11T03:05:02.135Z,11.50
2017-10-11T03:07:29.627Z,11.90
2017-10-11T03:09:57.112Z,12.10
2017-10-11T03:12:24.586Z,13.73
2017-10-11T03:14:52.088Z,15.87
2017-10-11T03:17:19.560Z,16.70
2017-10-11T03:19:47.034Z,13.77
2017-10-11T03:22:14.560Z,13.07
2017-10-11T03:24:42.291Z,17.97
2017-10-11T03:27:09.801Z,13.33
2017-10-11T03:29:37.263Z,15.30
2017-10-11T03:32:05.599Z,17.20
2017-10-11T03:34:33.086Z,16.80
2017-10-11T03:37:00.570Z,12.50
2017-10-11T03:39:28.075Z,22.07
2017-10-11T03:41:55.542Z,13.13
2017-10-11T03:44:23.002Z,10.43
2017-10-11T03:46:50.545Z,8.73
2017-10-11T03:49:18.003Z,8.63
2017-10-11T03:51:45.467Z,7.53
2017-10-11T03:54:12.934Z,8.23
2017-10-11T03:56:40.807Z,8.33
2017-10-11T03:59:08.869Z,9.47
2017-10-11T04:01:36.343Z,8.43
2017-10-11T04:04:03.828Z,7.63
2017-10-11T04:06:31.287Z,8.80
2017-10-11T04:08:58.784Z,18.70
2017-10-11T04:11:26.331Z,9.60
2017-10-11T04:13:53.827Z,14.00
2017-10-11T04:16:21.304Z,11.33
2017-10-11T04:18:48.857Z,13.27
2017-10-11T04:21:16.681Z,13.70
2017-10-11T04:23:44.140Z,8.20
2017-10-11T04:26:11.625Z,10.47
2017-10-11T04:28:39.104Z,6.73
2017-10-11T04:31:06.555Z,7.13
2017-10-11T04:33:34.008Z,6.60
2017-10-11T04:36:01.529Z,11.80
2017-10-11T04:38:29.006Z,8.10
2017-10-11T04:40:56.493Z,10.07
2017-10-11T04:43:23.956Z,9.93
2017-10-11T04:45:51.711Z,8.37
2017-10-11T04:48:19.169Z,7.50
2017-10-11T04:50:46.618Z,9.33
2017-10-11T04:53:14.114Z,8.03
2017-10-11T04:55:41.571Z,10.37
2017-10-11T04:58:09.036Z,6.17
2017-10-11T05:00:36.503Z,9.30
2017-10-11T05:03:04.403Z,7.13
2017-10-11T05:05:31.875Z,8.67
2017-10-11T05:07:59.337Z,8.77
2017-10-11T05:10:26.814Z,9.70
2017-10-11T05:12:54.333Z,9.20
2017-10-11T05:15:21.921Z,9.10
2017-10-11T05:17:49.410Z,7.73
2017-10-11T05:20:16.939Z,15.43
2017-10-11T05:22:44.455Z,12.70
2017-10-11T05:25:11.950Z,10.57
2017-10-11T05:27:40.090Z,8.30
2017-10-11T05:30:07.569Z,13.10
2017-10-11T05:32:35.718Z,11.30
2017-10-11T05:35:05.039Z,10.33
2017-10-11T05:37:32.742Z,11.07
2017-10-11T05:40:00.229Z,11.57
2017-10-11T05:42:30.014Z,12.80
2017-10-11T05:44:57.558Z,10.27
2017-10-11T05:47:25.031Z,11.73
2017-10-11T05:49:52.518Z,11.47
2017-10-11T05:52:20.088Z,10.23
2017-10-11T05:54:47.640Z,11.70
2017-10-11T05:57:15.124Z,12.43
2017-10-11T05:59:42.626Z,14.60
2017-10-11T06:02:10.120Z,11.67
2017-10-11T06:04:37.586Z,16.60
2017-10-11T06:07:05.065Z,13.93
2017-10-11T06:09:32.560Z,16.50
2017-10-11T06:12:00.470Z,13.60
2017-10-11T06:14:27.946Z,16.10
2017-10-11T06:16:55.420Z,13.80
2017-10-11T06:19:22.949Z,19.30
2017-10-11T06:21:50.524Z,20.00
2017-10-11T06:24:18.012Z,17.57
2017-10-11T06:26:45.568Z,18.33
2017-10-11T06:29:13.036Z,20.47
2017-10-11T06:31:40.615Z,20.60
2017-10-11T06:34:08.114Z,26.07
2017-10-11T06:36:35.585Z,20.13
2017-10-11T06:39:03.073Z,21.93
2017-10-11T06:41:30.544Z,23.10
2017-10-11T06:43:58.031Z,24.60
2017-10-11T06:46:25.514Z,22.80
2017-10-11T06:48:53.358Z,20.97
2017-10-11T06:51:20.887Z,23.93
2017-10-11T06:53:48.460Z,24.00
2017-10-11T06:56:15.982Z,25.20
2017-10-11T06:58:43.539Z,21.70
2017-10-11T07:01:11.037Z,23.07
2017-10-11T07:03:38.601Z,24.70
2017-10-11T07:06:06.116Z,21.20
2017-10-11T07:08:33.632Z,19.97
2017-10-11T07:11:01.135Z,21.27
2017-10-11T07:13:28.690Z,23.07
2017-10-11T07:15:56.198Z,23.43
2017-10-11T07:18:23.767Z,20.93
2017-10-11T07:20:52.402Z,18.30
2017-10-11T07:23:19.967Z,17.80
2017-10-11T07:25:48.100Z,21.10
2017-10-11T07:28:15.639Z,20.10
2017-10-11T07:30:43.468Z,19.17
2017-10-11T07:33:10.957Z,21.50
2017-10-11T07:35:38.452Z,16.20
2017-10-11T07:38:05.936Z,20.30
2017-10-11T07:40:33.415Z,20.07
2017-10-11T07:43:00.976Z,18.97
2017-10-11T07:45:28.469Z,19.00
2017-10-11T07:47:55.958Z,17.60
2017-10-11T07:50:23.435Z,18.47
2017-10-11T07:52:50.949Z,23.43
2017-10-11T07:55:18.529Z,18.53
2017-10-11T07:57:46.023Z,14.47
2017-10-11T08:00:13.599Z,16.43
2017-10-11T08:02:41.107Z,14.97
2017-10-11T08:05:08.629Z,14.87
2017-10-11T08:07:36.340Z,15.77
2017-10-11T08:10:03.890Z,22.27
2017-10-11T08:12:31.700Z,15.57
2017-10-11T08:14:59.334Z,22.10
2017-10-11T08:17:26.903Z,14.00
2017-10-11T08:19:54.392Z,15.50
2017-10-11T08:22:21.910Z,14.80
2017-10-11T08:24:49.455Z,19.93
2017-10-11T08:27:16.933Z,15.00
2017-10-11T08:29:44.410Z,15.43
2017-10-11T08:32:11.896Z,18.30
2017-10-11T08:34:39.380Z,14.77
2017-10-11T08:37:06.870Z,11.73
2017-10-11T08:39:34.384Z,11.30
2017-10-11T08:42:01.870Z,15.10
2017-10-11T08:44:29.667Z,10.13
2017-10-11T08:46:57.168Z,7.43
2017-10-11T08:49:24.653Z,8.67
2017-10-11T08:51:52.136Z,17.93
2017-10-11T08:54:19.623Z,8.07
2017-10-11T08:56:47.228Z,11.40
2017-10-11T08:59:14.701Z,6.00
2017-10-11T09:01:42.163Z,7.10
2017-10-11T09:04:09.710Z,6.83
2017-10-11T09:06:37.172Z,5.20
2017-10-11T09:09:04.633Z,5.23
2017-10-11T09:11:32.093Z,7.10
2017-10-11T09:13:59.596Z,4.90
2017-10-11T09:16:27.072Z,5.40
2017-10-11T09:18:54.903Z,6.60
2017-10-11T09:21:22.410Z,3.47
2017-10-11T09:23:49.887Z,3.87
2017-10-11T09:26:17.440Z,3.50
2017-10-11T09:28:44.937Z,4.70
2017-10-11T09:31:12.747Z,7.00
2017-10-11T09:33:40.207Z,8.33
2017-10-11T09:36:07.704Z,6.47
2017-10-11T09:38:35.204Z,3.07
2017-10-11T09:41:02.673Z,2.33
2017-10-11T09:43:30.160Z,2.30
2017-10-11T09:45:57.672Z,9.40
2017-10-11T09:48:25.455Z,3.27
2017-10-11T09:50:52.927Z,1.80
2017-10-11T09:53:20.395Z,2.70
2017-10-11T09:55:47.945Z,3.43
2017-10-11T09:58:15.464Z,3.00
2017-10-11T10:00:42.925Z,2.10
2017-10-11T10:03:10.447Z,2.17
2017-10-11T10:05:37.988Z,3.20
2017-10-11T10:08:05.495Z,2.10
2017-10-11T10:10:32.976Z,2.20
2017-10-11T10:13:00.460Z,3.00
2017-10-11T10:15:27.958Z,2.60
2017-10-11T10:17:55.463Z,3.57
2017-10-11T10:20:22.957Z,2.30
2017-10-11T10:22:50.434Z,4.20
2017-10-11T10:25:17.919Z,6.17
2017-10-11T10:27:45.402Z,4.07
2017-10-11T10:30:12.911Z,2.40
2017-10-11T10:32:40.404Z,5.00
2017-10-11T10:35:07.864Z,2.10
2017-10-11T10:37:35.341Z,2.33
2017-10-11T10:40:02.812Z,3.77
2017-10-11T10:42:30.338Z,3.40
2017-10-11T10:44:57.804Z,6.43
2017-10-11T10:47:25.267Z,3.20
2017-10-11T10:49:52.743Z,3.27
2017-10-11T10:52:20.236Z,4.10
2017-10-11T10:54:47.763Z,2.07
2017-10-11T10:57:15.291Z,1.63
2017-10-11T10:59:42.754Z,3.70
2017-10-11T11:02:10.248Z,3.20
2017-10-11T11:04:37.748Z,4.10
2017-10-11T11:07:05.239Z,2.30
2017-10-11T11:09:32.708Z,2.70
2017-10-11T11:12:00.557Z,5.10
2017-10-11T11:14:28.030Z,2.37
2017-10-11T11:16:55.526Z,2.77
2017-10-11T11:19:23.054Z,3.87
2017-10-11T11:21:50.519Z,2.70
2017-10-11T11:24:18.029Z,2.57
2017-10-11T11:26:45.502Z,5.20
2017-10-11T11:29:12.972Z,2.40
2017-10-11T11:31:40.476Z,2.10
2017-10-11T11:34:07.945Z,2.20
2017-10-11T11:36:35.441Z,2.73
2017-10-11T11:39:02.920Z,6.00
2017-10-11T11:41:30.383Z,5.50
2017-10-11T11:43:57.879Z,2.03
2017-10-11T11:46:25.409Z,3.30
2017-10-11T11:48:52.915Z,2.30
2017-10-11T11:51:20.397Z,2.50
2017-10-11T11:53:48.231Z,2.20
2017-10-11T11:56:15.690Z,2.13
2017-10-11T11:58:43.242Z,3.90
2017-10-11T12:01:10.739Z,3.40
2017-10-11T12:03:38.226Z,2.07
2017-10-11T12:06:05.722Z,1.83
2017-10-11T12:08:33.219Z,2.50
2017-10-11T12:11:00.727Z,7.23
2017-10-11T12:13:28.249Z,6.40
2017-10-11T12:15:55.777Z,2.73
2017-10-11T12:18:23.267Z,1.37
2017-10-11T12:20:50.746Z,2.20
2017-10-11T12:23:18.277Z,2.33
2017-10-11T12:25:45.797Z,2.47
2017-10-11T12:28:13.314Z,1.90
2017-10-11T12:30:40.798Z,2.43
2017-10-11T12:33:08.275Z,2.00
2017-10-11T12:35:35.783Z,3.10
2017-10-11T12:38:04.203Z,1.40
2017-10-11T12:40:31.681Z,4.13
2017-10-11T12:42:59.188Z,1.90
2017-10-11T12:45:26.744Z,3.27
2017-10-11T12:47:54.246Z,2.40
2017-10-11T12:50:21.733Z,6.43
2017-10-11T12:52:49.229Z,2.67
2017-10-11T12:55:16.718Z,2.67
2017-10-11T12:57:44.225Z,3.53
2017-10-11T13:00:11.714Z,2.67
2017-10-11T13:02:39.200Z,2.47
2017-10-11T13:05:06.658Z,3.83
2017-10-11T13:07:34.139Z,2.23
2017-10-11T13:10:01.600Z,1.87
2017-10-11T13:12:29.122Z,1.53
2017-10-11T13:14:56.584Z,2.33
2017-10-11T13:17:24.152Z,2.27
2017-10-11T13:19:51.740Z,2.70
2017-10-11T13:22:19.279Z,1.80
2017-10-11T13:24:46.776Z,4.80
2017-10-11T13:27:14.328Z,2.57
2017-10-11T13:29:41.838Z,2.03
2017-10-11T13:32:09.360Z,3.37
2017-10-11T13:34:36.862Z,1.90
2017-10-11T13:37:04.362Z,2.50
2017-10-11T13:39:31.868Z,4.53
2017-10-11T13:41:59.362Z,8.13
2017-10-11T13:44:26.862Z,1.97
2017-10-11T13:46:54.359Z,1.83
2017-10-11T13:49:21.836Z,8.20
2017-10-11T13:51:49.318Z,3.30
2017-10-11T13:54:16.815Z,1.70
2017-10-11T13:56:44.283Z,3.23
2017-10-11T13:59:11.773Z,2.40
2017-10-11T14:01:39.249Z,3.03
2017-10-11T14:04:06.740Z,3.40
2017-10-11T14:06:34.214Z,1.80
2017-10-11T14:09:01.718Z,2.43
2017-10-11T14:11:29.180Z,2.87
2017-10-11T14:13:56.688Z,4.43
2017-10-11T14:16:24.182Z,3.93
2017-10-11T14:18:51.644Z,4.00
2017-10-11T14:21:19.113Z,4.03
2017-10-11T14:23:46.600Z,2.10
2017-10-11T14:26:14.062Z,3.83
2017-10-11T14:28:41.544Z,4.50
2017-10-11T14:31:09.082Z,3.30
2017-10-11T14:33:36.558Z,4.93
2017-10-11T14:36:04.122Z,3.70
2017-10-11T14:38:31.628Z,3.40
2017-10-11T14:40:59.118Z,3.60
2017-10-11T14:43:26.630Z,2.63
2017-10-11T14:45:54.417Z,2.83
2017-10-11T14:48:21.932Z,3.00
2017-10-11T14:50:49.396Z,15.33
2017-10-11T14:53:16.883Z,3.43
2017-10-11T14:55:44.335Z,3.03
2017-10-11T14:58:11.834Z,2.00
2017-10-11T15:00:39.328Z,3.20
2017-10-11T15:03:06.850Z,2.17
2017-10-11T15:05:34.348Z,1.90
2017-10-11T15:08:01.896Z,3.90
2017-10-11T15:10:29.414Z,5.37
2017-10-11T15:12:56.882Z,2.60
2017-10-11T15:15:24.429Z,4.43
2017-10-11T15:17:51.914Z,4.87
2017-10-11T15:20:19.379Z,2.40
2017-10-11T15:22:46.910Z,5.70
2017-10-11T15:25:14.381Z,2.93
2017-10-11T15:27:41.862Z,2.53
2017-10-11T15:30:09.313Z,2.40
2017-10-11T15:32:36.790Z,6.23
2017-10-11T15:35:04.305Z,4.00
2017-10-11T15:37:31.778Z,3.30
2017-10-11T15:39:59.873Z,3.10
2017-10-11T15:42:27.370Z,2.67
2017-10-11T15:44:54.885Z,2.50
2017-10-11T15:47:22.630Z,2.73
2017-10-11T15:49:50.102Z,2.50
2017-10-11T15:52:17.576Z,2.30
2017-10-11T15:54:45.067Z,4.20
2017-10-11T15:57:12.554Z,2.00
2017-10-11T15:59:40.047Z,3.90
2017-10-11T16:02:07.534Z,3.57
2017-10-11T16:04:35.007Z,2.27
2017-10-11T16:07:02.494Z,2.70
2017-10-11T16:09:29.952Z,2.70
2017-10-11T16:11:57.439Z,6.87
2017-10-11T16:14:24.932Z,2.37
2017-10-11T16:16:52.400Z,2.50
2017-10-11T16:19:19.881Z,2.50
2017-10-11T16:21:47.380Z,2.17
2017-10-11T16:24:14.872Z,4.47
2017-10-11T16:26:42.355Z,3.30
2017-10-11T16:29:09.821Z,6.60
2017-10-11T16:31:37.306Z,3.40
2017-10-11T16:34:04.775Z,3.60
2017-10-11T16:36:32.257Z,2.57
2017-10-11T16:39:00.169Z,3.10
2017-10-11T16:41:27.627Z,2.13
2017-10-11T16:43:55.097Z,2.50
2017-10-11T16:46:22.592Z,3.30
2017-10-11T16:48:50.064Z,5.23
2017-10-11T16:51:17.543Z,4.57
2017-10-11T16:53:45.058Z,3.67
2017-10-11T16:56:12.560Z,2.60
2017-10-11T16:58:40.080Z,2.53
2017-10-11T17:01:07.849Z,2.53
2017-10-11T17:03:35.317Z,2.83
2017-10-11T17:06:02.865Z,4.23
2017-10-11T17:08:30.400Z,2.47
2017-10-11T17:10:57.877Z,2.93
2017-10-11T17:13:25.327Z,7.67
2017-10-11T17:15:52.825Z,3.10
2017-10-11T17:18:20.295Z,2.37
2017-10-11T17:20:48.050Z,2.63
2017-10-11T17:23:15.544Z,3.13
2017-10-11T17:25:43.062Z,1.70
2017-10-11T17:28:10.532Z,2.23
2017-10-11T17:30:38.023Z,1.70
2017-10-11T17:33:05.507Z,2.63
2017-10-11T17:35:32.976Z,2.80
2017-10-11T17:38:00.478Z,4.40
2017-10-11T17:40:27.946Z,3.03
2017-10-11T17:42:55.417Z,2.10
2017-10-11T17:45:22.918Z,3.60
2017-10-11T17:47:50.393Z,5.37
2017-10-11T17:50:17.873Z,4.37
2017-10-11T17:52:45.334Z,2.87
2017-10-11T17:55:12.827Z,3.27
2017-10-11T17:57:40.298Z,2.13
2017-10-11T18:00:07.761Z,8.10
2017-10-11T18:02:35.306Z,6.23
2017-10-11T18:05:02.786Z,4.80
2017-10-11T18:07:30.301Z,2.53
2017-10-11T18:09:57.765Z,4.40
2017-10-11T18:12:25.264Z,4.87
2017-10-11T18:14:52.755Z,3.13
2017-10-11T18:17:20.235Z,2.80
2017-10-11T18:19:47.703Z,2.30
2017-10-11T18:22:15.182Z,4.20
2017-10-11T18:24:42.666Z,4.63
2017-10-11T18:27:10.125Z,3.37
2017-10-11T18:29:37.627Z,4.00
2017-10-11T18:32:05.152Z,4.80
2017-10-11T18:34:32.621Z,3.67
2017-10-11T18:37:00.103Z,3.33
2017-10-11T18:39:27.584Z,2.70
2017-10-11T18:41:56.705Z,9.53
2017-10-11T18:44:24.218Z,3.67
2017-10-11T18:46:51.726Z,3.60
2017-10-11T18:49:19.395Z,4.57
2017-10-11T18:51:46.880Z,10.60
2017-10-11T18:54:14.359Z,5.10
2017-10-11T18:56:41.900Z,4.47
2017-10-11T18:59:09.386Z,3.53
2017-10-11T19:01:36.911Z,2.83
2017-10-11T19:04:04.392Z,5.00
2017-10-11T19:06:31.844Z,2.80
2017-10-11T19:08:59.348Z,3.23
2017-10-11T19:11:27.458Z,2.70
2017-10-11T19:13:54.944Z,2.87
2017-10-11T19:16:22.424Z,2.80
2017-10-11T19:18:49.885Z,4.90
2017-10-11T19:21:17.362Z,4.10
2017-10-11T19:23:44.824Z,2.70
2017-10-11T19:26:12.285Z,6.73
2017-10-11T19:28:39.841Z,3.80
2017-10-11T19:31:07.306Z,3.80
2017-10-11T19:33:34.784Z,5.07
2017-10-11T19:36:02.334Z,3.97
2017-10-11T19:38:29.797Z,7.00
2017-10-11T19:40:57.307Z,3.67
2017-10-11T19:43:24.790Z,3.27
2017-10-11T19:45:52.298Z,3.97
2017-10-11T19:48:19.769Z,3.10
2017-10-11T19:50:47.250Z,4.27
2017-10-11T19:53:15.138Z,5.07
2017-10-11T19:55:42.602Z,5.57
2017-10-11T19:58:10.091Z,3.67
2017-10-11T20:00:37.635Z,5.73
2017-10-11T20:03:05.108Z,3.77
2017-10-11T20:05:32.648Z,5.20
2017-10-11T20:08:00.128Z,3.70
2017-10-11T20:10:27.655Z,4.30
2017-10-11T20:12:55.140Z,5.17
2017-10-11T20:15:23.010Z,7.10
2017-10-11T20:17:50.471Z,5.03
2017-10-11T20:20:17.924Z,3.60
2017-10-11T20:22:45.425Z,4.63
2017-10-11T20:25:12.909Z,3.53
2017-10-11T20:27:40.512Z,3.30
2017-10-11T20:30:07.978Z,5.67
2017-10-11T20:32:35.439Z,4.80
2017-10-11T20:35:02.921Z,3.50
2017-10-11T20:37:30.377Z,10.00
2017-10-11T20:39:57.847Z,4.60
2017-10-11T20:42:25.299Z,3.47
2017-10-11T20:44:52.770Z,5.83
2017-10-11T20:47:20.253Z,3.97
2017-10-11T20:49:47.736Z,4.40
2017-10-11T20:52:15.213Z,5.70
2017-10-11T20:54:42.722Z,5.60
2017-10-11T20:57:10.236Z,3.97
2017-10-11T20:59:37.705Z,4.73
2017-10-11T21:02:05.198Z,4.63
2017-10-11T21:04:32.672Z,5.30
2017-10-11T21:07:00.139Z,5.00
2017-10-11T21:09:27.750Z,5.83
2017-10-11T21:11:55.211Z,9.30
2017-10-11T21:14:22.789Z,5.50
2017-10-11T21:16:50.243Z,4.47
2017-10-11T21:19:17.735Z,7.23
2017-10-11T21:21:45.203Z,3.90
2017-10-11T21:24:12.661Z,5.53
2017-10-11T21:26:40.137Z,7.17
2017-10-11T21:29:07.618Z,3.60
2017-10-11T21:31:35.458Z,3.70
2017-10-11T21:34:02.925Z,3.17
2017-10-11T21:36:30.422Z,3.87
2017-10-11T21:38:57.977Z,3.23
2017-10-11T21:41:25.432Z,3.87
2017-10-11T21:43:52.924Z,5.07
2017-10-11T21:46:20.440Z,9.20
2017-10-11T21:48:47.926Z,4.00
2017-10-11T21:51:15.390Z,3.37
2017-10-11T21:53:42.874Z,4.70
2017-10-11T21:56:10.363Z,4.27
2017-10-11T21:58:37.850Z,5.40
2017-10-11T22:01:05.326Z,5.37
2017-10-11T22:03:32.787Z,5.73
2017-10-11T22:06:00.252Z,6.53
2017-10-11T22:08:27.707Z,5.70
2017-10-11T22:10:55.184Z,13.90
2017-10-11T22:13:22.616Z,8.70
2017-10-11T22:15:50.042Z,6.93
2017-10-11T22:18:17.491Z,7.00
2017-10-11T22:20:44.982Z,7.40
2017-10-11T22:23:12.434Z,4.70
2017-10-11T22:25:39.902Z,10.70
2017-10-11T22:28:07.377Z,7.23
2017-10-11T22:30:34.776Z,7.87
2017-10-11T22:33:02.342Z,5.77
2017-10-11T22:35:29.814Z,11.93
2017-10-11T22:37:57.291Z,7.53
2017-10-11T22:40:24.827Z,6.60
2017-10-11T22:42:52.294Z,7.57
2017-10-11T22:45:19.762Z,6.97
2017-10-11T22:47:47.224Z,6.33
2017-10-11T22:50:14.701Z,6.63
2017-10-11T22:52:42.138Z,4.53
2017-10-11T22:55:09.581Z,4.50
2017-10-11T22:57:37.032Z,7.20
2017-10-11T23:00:04.460Z,6.30
2017-10-11T23:02:31.954Z,4.97
2017-10-11T23:04:59.398Z,5.80
2017-10-11T23:07:26.870Z,3.60
2017-10-11T23:09:54.325Z,2.40
2017-10-11T23:12:21.792Z,6.07
2017-10-11T23:14:49.181Z,6.87
2017-10-11T23:17:16.603Z,11.03
2017-10-11T23:19:44.073Z,5.50
2017-10-11T23:22:11.463Z,7.03
2017-10-11T23:24:38.924Z,6.07
2017-10-11T23:27:06.418Z,8.80
2017-10-11T23:29:33.853Z,5.87
2017-10-11T23:32:01.342Z,8.37
2017-10-11T23:34:28.785Z,6.40
2017-10-11T23:36:56.213Z,3.90
2017-10-11T23:39:23.705Z,3.00
2017-10-11T23:41:51.164Z,4.40
2017-10-11T23:44:18.577Z,9.63
2017-10-11T23:46:46.000Z,5.90
2017-10-11T23:49:13.416Z,4.40
2017-10-11T23:51:40.824Z,7.10
2017-10-11T23:54:08.342Z,7.57
2017-10-11T23:56:35.775Z,5.47
2017-10-11T23:59:03.235Z,6.20
